Atmautluak, Alaska
Current Conditions -  °F | °C
As of 4:53 AM on Thursday 29 Jan 2015 (Local Time) from PABE Reporting Station
Clear Clear  
Wind Chill: -27°   Ceiling: Unl
Heat Index: -5°   Visibility: 10mi
Dew Point: -12°   Wind: 17mph
Humidity: 72%   Direction: 10°N
Pressure: 30.41"   Gusts: NA
Location:  60.7494°N, 161.727°W
Report Text: PABE 291353Z 01015KT 10SM CLR M21/M24 A3041 RMK AO2 SLP302 T12061244
Loading
Personal Weather Stations






























Interactive Weather Map New forecast layout! Learn more

10-Day Weather Forecast

Advertisements
Track Severe Weather on mobile